Time;durP1;ratioP1;P1;durP2;ratioP2;P2;SDS_P1;SDS_P2;PMS_P1;PMS_P2;Temp;Humidity;BMP_temperature;BMP_pressure;BME280_temperature;BME280_humidity;BME280_pressure;Samples;Min_cycle;Max_cycle;Signal;HPM_P1;HPM_P2
2022/10/27 00:00:49;;;;;;;12.85;7.08;;;;;;;9.63;74.51;102120.44;1813761;78;25964;-62
2022/10/27 00:03:18;;;;;;;11.08;6.67;;;;;;;9.65;74.71;102118.49;1786802;77;25716;-63
2022/10/27 00:05:47;;;;;;;11.75;6.75;;;;;;;9.67;74.83;102118.42;1780411;80;26380;-62
2022/10/27 00:08:20;;;;;;;10.78;6.50;;;;;;;9.66;74.66;102125.59;1782597;77;25757;-63
2022/10/27 00:11:00;;;;;;;13.80;6.72;;;;;;;9.68;74.79;102127.72;1796318;78;27472;-62
2022/10/27 00:13:28;;;;;;;10.32;6.70;;;;;;;9.68;74.67;102129.55;1794112;78;25853;-62
2022/10/27 00:16:08;;;;;;;11.30;6.33;;;;;;;9.70;74.77;102128.49;1799318;77;25457;-62
2022/10/27 00:18:35;;;;;;;13.55;6.83;;;;;;;9.70;74.58;102132.98;1818989;78;26335;-63
2022/10/27 00:21:23;;;;;;;15.35;6.37;;;;;;;9.68;74.59;102137.12;1822255;78;25785;-63
2022/10/27 00:23:50;;;;;;;12.30;6.17;;;;;;;9.69;74.73;102138.85;1818369;78;27521;-62
2022/10/27 00:26:21;;;;;;;16.20;7.12;;;;;;;9.64;75.27;102134.73;1816639;78;25861;-63
2022/10/27 00:28:48;;;;;;;10.32;6.67;;;;;;;9.59;74.91;102138.19;1786341;78;25742;-63
2022/10/27 00:31:19;;;;;;;19.62;8.35;;;;;;;9.58;74.95;102138.66;1783296;80;25802;-64
2022/10/27 00:33:49;;;;;;;15.32;6.87;;;;;;;9.59;74.92;102139.05;1782704;80;25792;-63
2022/10/27 00:36:21;;;;;;;18.75;7.15;;;;;;;9.57;74.89;102132.05;1783180;80;27431;-64
2022/10/27 00:38:49;;;;;;;10.80;6.22;;;;;;;9.56;74.91;102131.16;1782814;80;25711;-62
2022/10/27 00:41:29;;;;;;;14.20;6.35;;;;;;;9.55;75.04;102138.84;1752339;80;25821;-62
2022/10/27 00:44:00;;;;;;;11.00;7.33;;;;;;;9.51;74.93;102134.63;1790406;78;26142;-63
2022/10/27 00:46:40;;;;;;;12.05;7.60;;;;;;;9.50;75.07;102137.78;1818984;78;25712;-62
2022/10/27 00:49:13;;;;;;;19.30;6.95;;;;;;;9.50;75.02;102135.09;1818817;78;27465;-63
2022/10/27 00:51:49;;;;;;;;;;;;;;;9.45;75.01;102135.88;1809615;78;25800;-63
2022/10/27 00:54:20;;;;;;;14.03;6.53;;;;;;;9.37;74.92;102137.68;1819103;78;25416;-64
2022/10/27 00:56:50;;;;;;;12.63;6.75;;;;;;;9.32;75.07;102138.45;1819027;78;25688;-64
2022/10/27 00:59:19;;;;;;;9.45;6.97;;;;;;;9.30;75.21;102137.68;1817802;78;25936;-64
2022/10/27 01:01:49;;;;;;;11.57;7.03;;;;;;;9.27;75.24;102136.55;1808283;78;27424;-62
2022/10/27 01:04:28;;;;;;;15.63;7.35;;;;;;;9.23;75.24;102142.55;1754113;81;26156;-62
2022/10/27 01:06:59;;;;;;;14.60;6.85;;;;;;;9.19;75.41;102138.34;1756831;80;25708;-63
2022/10/27 01:09:26;;;;;;;13.72;6.58;;;;;;;9.20;75.60;102136.05;1756415;80;25464;-64
2022/10/27 01:11:53;;;;;;;12.75;6.47;;;;;;;9.18;75.38;102134.42;1755852;81;25251;-63
2022/10/27 01:14:19;;;;;;;13.18;7.45;;;;;;;9.15;75.19;102146.68;1755820;81;27632;-63
2022/10/27 01:17:17;;;;;;;14.47;6.53;;;;;;;9.13;75.37;102144.09;1756131;81;26115;-62
2022/10/27 01:20:19;;;;;;;10.08;6.45;;;;;;;9.11;75.22;102147.81;1755839;80;25649;-62
2022/10/27 01:22:54;;;;;;;12.70;7.00;;;;;;;9.05;75.40;102146.38;1721830;81;26433;-63
2022/10/27 01:25:39;;;;;;;15.65;7.33;;;;;;;9.03;75.65;102148.29;1755998;81;26330;-63
2022/10/27 01:28:50;;;;;;;17.60;6.97;;;;;;;9.02;75.58;102155.95;1758304;80;28643;-63
2022/10/27 01:31:22;;;;;;;14.18;7.08;;;;;;;8.96;75.38;102150.96;1822498;78;25944;-64
2022/10/27 01:33:55;;;;;;;17.48;7.37;;;;;;;8.94;75.60;102159.08;1791549;78;25797;-64
2022/10/27 01:36:36;;;;;;;12.63;6.90;;;;;;;8.95;75.67;102157.28;1788539;80;26168;-64
2022/10/27 01:39:23;;;;;;;10.55;7.45;;;;;;;8.94;75.82;102160.42;1755438;81;26057;-63
2022/10/27 01:42:04;;;;;;;10.48;6.95;;;;;;;8.95;75.79;102157.28;1789328;78;27568;-63
2022/10/27 01:44:44;;;;;;;14.75;7.53;;;;;;;8.93;75.77;102160.03;1755777;80;25794;-64
2022/10/27 01:47:13;;;;;;;17.42;7.62;;;;;;;8.94;75.78;102153.72;1788877;80;25415;-63
2022/10/27 01:49:42;;;;;;;8.98;6.45;;;;;;;8.92;75.70;102163.67;1752688;81;25745;-63
2022/10/27 01:52:38;;;;;;;12.63;6.33;;;;;;;8.88;75.96;102169.70;1758128;81;25498;-64
2022/10/27 01:55:45;;;;;;;12.37;6.58;;;;;;;8.86;75.95;102171.64;1755430;80;27672;-63
2022/10/27 01:58:39;;;;;;;15.15;7.35;;;;;;;8.87;76.16;102172.03;1788704;80;25667;-62
2022/10/27 02:01:20;;;;;;;7.25;6.28;;;;;;;8.77;75.95;102166.32;1782203;80;25773;-63
2022/10/27 02:04:01;;;;;;;14.80;7.35;;;;;;;8.75;76.00;102171.39;1755804;81;26256;-63
2022/10/27 02:07:04;;;;;;;12.65;6.12;;;;;;;8.72;76.23;102175.13;1789172;80;25461;-63
2022/10/27 02:09:51;;;;;;;11.60;6.65;;;;;;;8.75;76.28;102178.10;1722662;81;27772;-63
2022/10/27 02:12:35;;;;;;;14.38;6.75;;;;;;;8.70;76.34;102186.42;1788645;78;25691;-63
2022/10/27 02:15:13;;;;;;;13.45;7.33;;;;;;;8.67;76.62;102183.91;1756239;81;25844;-62
2022/10/27 02:17:43;;;;;;;13.25;5.95;;;;;;;8.61;76.31;102190.97;1790641;79;26163;-63
2022/10/27 02:20:20;;;;;;;11.25;6.62;;;;;;;8.57;76.41;102191.62;1797787;79;25669;-63
2022/10/27 02:22:51;;;;;;;12.68;6.92;;;;;;;8.55;76.50;102192.67;1797675;79;27466;-64
2022/10/27 02:25:22;;;;;;;10.35;6.90;;;;;;;8.53;76.56;102195.42;1797699;79;25702;-61
2022/10/27 02:27:54;;;;;;;15.10;6.87;;;;;;;8.53;76.48;102193.23;1790638;78;25738;-63
2022/10/27 02:30:21;;;;;;;13.50;7.00;;;;;;;8.52;76.56;102196.87;1757203;80;25873;-63
2022/10/27 02:32:50;;;;;;;23.38;7.87;;;;;;;8.52;76.64;102192.84;1790653;80;25437;-63
2022/10/27 02:35:18;;;;;;;12.37;7.80;;;;;;;8.51;76.45;102196.02;1790335;80;27495;-63
2022/10/27 02:37:45;;;;;;;14.10;7.90;;;;;;;8.51;76.56;102200.50;1759809;80;25540;-62
2022/10/27 02:40:12;;;;;;;11.48;6.85;;;;;;;8.48;76.45;102199.31;1790390;80;25762;-63
2022/10/27 02:42:39;;;;;;;17.10;6.72;;;;;;;8.51;76.41;102212.56;1791176;80;26493;-62
2022/10/27 02:45:08;;;;;;;15.68;7.15;;;;;;;8.49;76.38;102200.59;1789985;80;25983;-62
2022/10/27 02:47:35;;;;;;;12.63;7.17;;;;;;;8.48;76.24;102206.02;1790690;80;27453;-63
2022/10/27 02:50:02;;;;;;;12.82;6.67;;;;;;;8.45;76.28;102217.77;1790641;80;25768;-62
2022/10/27 02:52:29;;;;;;;13.72;6.80;;;;;;;8.42;76.19;102204.06;1790603;80;25923;-63
2022/10/27 02:54:57;;;;;;;12.63;6.58;;;;;;;8.43;76.35;102214.30;1790618;80;25758;-63
2022/10/27 02:57:24;;;;;;;12.00;6.37;;;;;;;8.38;76.22;102212.36;1790731;80;26205;-63
2022/10/27 02:59:51;;;;;;;15.55;7.25;;;;;;;8.33;76.17;102213.11;1790080;80;28681;-62
2022/10/27 03:02:21;;;;;;;11.05;6.30;;;;;;;8.33;76.40;102209.09;1789937;80;25468;-62
2022/10/27 03:04:48;;;;;;;12.50;6.15;;;;;;;8.32;76.29;102207.36;1790896;80;25757;-64
2022/10/27 03:07:16;;;;;;;15.13;8.35;;;;;;;8.27;76.46;102208.95;1790791;80;25790;-64
2022/10/27 03:09:43;;;;;;;15.98;6.10;;;;;;;8.23;76.64;102212.28;1791239;80;25697;-62
2022/10/27 03:12:10;;;;;;;14.47;6.97;;;;;;;8.19;76.21;102207.18;1791009;80;28504;-62
2022/10/27 03:14:37;;;;;;;22.15;10.10;;;;;;;8.15;76.25;102211.84;1790857;80;25468;-61
2022/10/27 03:17:04;;;;;;;15.58;7.00;;;;;;;8.14;76.54;102210.97;1790850;80;25722;-63
2022/10/27 03:19:31;;;;;;;14.45;8.83;;;;;;;8.16;76.44;102218.91;1758419;80;25638;-64
2022/10/27 03:21:58;;;;;;;14.35;8.25;;;;;;;8.17;76.74;102218.45;1790738;79;25899;-63
2022/10/27 03:24:25;;;;;;;17.45;6.92;;;;;;;8.18;76.67;102222.87;1759899;80;27485;-64
2022/10/27 03:26:52;;;;;;;10.80;6.05;;;;;;;8.18;76.49;102225.06;1759799;80;25723;-63
2022/10/27 03:29:19;;;;;;;10.85;6.85;;;;;;;8.21;76.70;102226.70;1759535;80;25722;-63
2022/10/27 03:31:46;;;;;;;12.73;7.90;;;;;;;8.21;76.58;102228.92;1790759;80;25843;-62
2022/10/27 03:34:13;;;;;;;10.23;6.85;;;;;;;8.20;76.28;102227.68;1790361;80;25499;-63
2022/10/27 03:36:40;;;;;;;12.75;6.55;;;;;;;8.17;76.30;102231.86;1790571;80;27499;-63
2022/10/27 03:39:10;;;;;;;21.60;8.35;;;;;;;8.14;76.46;102237.77;1790691;80;25709;-64
2022/10/27 03:41:37;;;;;;;14.75;7.28;;;;;;;8.11;76.35;102239.27;1790461;80;25705;-63
2022/10/27 03:44:05;;;;;;;15.80;7.35;;;;;;;8.07;76.52;102238.21;1759936;80;26331;-63
2022/10/27 03:46:32;;;;;;;14.45;7.42;;;;;;;8.07;76.94;102243.57;1790211;80;25725;-63
2022/10/27 03:48:58;;;;;;;16.70;7.53;;;;;;;8.00;76.75;102248.39;1790856;80;27414;-62
2022/10/27 03:51:26;;;;;;;16.80;7.80;;;;;;;7.97;76.82;102249.89;1777649;80;25807;-62
2022/10/27 03:53:53;;;;;;;19.23;7.37;;;;;;;7.96;76.91;102253.52;1755946;80;25731;-63
2022/10/27 03:56:20;;;;;;;22.70;7.85;;;;;;;7.93;76.84;102251.87;1755967;81;26371;-63
2022/10/27 03:58:47;;;;;;;14.50;7.47;;;;;;;7.90;76.99;102248.00;1755961;81;25782;-63
2022/10/27 04:01:14;;;;;;;18.62;8.00;;;;;;;7.92;77.06;102251.96;1755979;81;27462;-63
2022/10/27 04:03:41;;;;;;;16.25;8.03;;;;;;;7.91;76.99;102255.09;1756007;81;25803;-62
2022/10/27 04:06:08;;;;;;;19.87;7.50;;;;;;;7.93;77.25;102255.03;1755960;81;25786;-62
2022/10/27 04:08:34;;;;;;;15.13;7.20;;;;;;;7.96;77.16;102245.47;1756254;81;25710;-63
2022/10/27 04:11:02;;;;;;;9.38;7.00;;;;;;;7.99;77.35;102252.02;1756055;80;25711;-63
2022/10/27 04:13:29;;;;;;;16.00;7.17;;;;;;;7.99;77.09;102254.70;1755965;81;27484;-62
2022/10/27 04:16:04;;;;;;;32.53;8.90;;;;;;;7.99;77.02;102256.03;1755938;81;25983;-63
2022/10/27 04:18:30;;;;;;;18.90;6.70;;;;;;;7.98;76.94;102264.53;1756538;81;25813;-63
2022/10/27 04:21:02;;;;;;;13.78;7.72;;;;;;;7.96;76.81;102265.57;1756687;80;26644;-62
2022/10/27 04:23:30;;;;;;;16.48;7.10;;;;;;;7.89;76.62;102263.69;1788208;80;25753;-62
2022/10/27 04:25:58;;;;;;;14.95;7.20;;;;;;;7.88;76.74;102270.48;1790605;80;28148;-62
2022/10/27 04:28:25;;;;;;;15.38;6.85;;;;;;;7.83;76.60;102265.36;1781241;80;25705;-62
2022/10/27 04:30:52;;;;;;;21.20;6.70;;;;;;;7.82;76.89;102276.56;1755933;79;25753;-63
2022/10/27 04:33:19;;;;;;;16.52;6.67;;;;;;;7.80;76.78;102272.21;1755904;80;26292;-63
2022/10/27 04:35:46;;;;;;;13.80;6.83;;;;;;;7.77;76.82;102275.08;1755855;81;25789;-63
2022/10/27 04:38:13;;;;;;;27.13;7.87;;;;;;;7.77;77.00;102269.23;1751042;81;27477;-63
2022/10/27 04:40:40;;;;;;;15.20;7.08;;;;;;;7.76;76.83;102276.87;1755439;81;26227;-63
2022/10/27 04:43:07;;;;;;;18.37;6.95;;;;;;;7.74;76.89;102285.94;1755906;81;25838;-64
2022/10/27 04:45:35;;;;;;;13.72;6.33;;;;;;;7.69;76.72;102282.16;1755968;81;25742;-63
2022/10/27 04:48:04;;;;;;;17.95;7.92;;;;;;;7.64;76.72;102282.89;1756177;81;25754;-64
2022/10/27 04:50:31;;;;;;;10.48;7.12;;;;;;;7.62;76.70;102290.13;1768799;80;27702;-63
2022/10/27 04:53:02;;;;;;;13.22;6.60;;;;;;;7.62;76.93;102288.30;1756512;80;25726;-63
2022/10/27 04:55:32;;;;;;;11.88;7.00;;;;;;;7.59;76.77;102296.97;1755979;81;25826;-62
2022/10/27 04:58:00;;;;;;;17.27;6.25;;;;;;;7.56;76.86;102299.34;1756091;80;25797;-63
2022/10/27 05:00:27;;;;;;;14.87;7.12;;;;;;;7.55;76.83;102300.28;1756047;81;25795;-62
2022/10/27 05:02:57;;;;;;;15.10;6.30;;;;;;;7.54;76.86;102305.24;1756008;81;27415;-63
2022/10/27 05:05:29;;;;;;;15.72;7.03;;;;;;;7.55;76.77;102308.80;1755954;80;26022;-62
2022/10/27 05:08:02;;;;;;;8.70;6.28;;;;;;;7.51;76.71;102306.27;1756125;80;25728;-63
2022/10/27 05:10:32;;;;;;;15.55;6.80;;;;;;;7.52;76.90;102316.53;1756203;81;25975;-63
2022/10/27 05:12:59;;;;;;;10.40;7.30;;;;;;;7.50;77.01;102313.91;1753320;80;25728;-62
2022/10/27 05:15:27;;;;;;;11.45;7.35;;;;;;;7.51;77.13;102318.33;1790600;80;27465;-63
2022/10/27 05:17:54;;;;;;;13.75;6.60;;;;;;;7.60;77.35;102321.47;1790577;80;25790;-64
2022/10/27 05:20:21;;;;;;;31.95;8.03;;;;;;;7.66;77.40;102328.73;1774188;80;25836;-64
2022/10/27 05:22:49;;;;;;;25.15;7.40;;;;;;;7.72;77.50;102332.02;1755686;81;26435;-63
2022/10/27 05:25:17;;;;;;;18.10;7.62;;;;;;;7.74;77.41;102329.69;1729400;80;25811;-64
2022/10/27 05:27:45;;;;;;;12.35;7.33;;;;;;;7.76;77.31;102329.11;1737397;80;27461;-64
2022/10/27 05:30:13;;;;;;;25.15;8.05;;;;;;;7.78;77.19;102337.94;1763631;80;25699;-64
2022/10/27 05:32:41;;;;;;;15.03;7.65;;;;;;;7.80;77.24;102334.72;1808898;77;25797;-62
2022/10/27 05:35:10;;;;;;;16.97;7.60;;;;;;;7.82;77.13;102334.63;1809135;77;25750;-64
2022/10/27 05:37:40;;;;;;;19.32;7.47;;;;;;;7.87;77.19;102341.97;1809188;77;25855;-63
2022/10/27 05:40:09;;;;;;;13.65;6.90;;;;;;;7.92;77.18;102347.09;1801613;78;27487;-63
2022/10/27 05:42:36;;;;;;;15.08;8.18;;;;;;;7.96;77.05;102346.84;1792011;78;25781;-64
2022/10/27 05:45:06;;;;;;;12.10;7.65;;;;;;;7.96;76.60;102349.98;1722841;82;25760;-64
2022/10/27 05:47:33;;;;;;;17.45;7.75;;;;;;;7.98;76.61;102362.84;1737744;82;25537;-63
2022/10/27 05:50:00;;;;;;;15.65;7.72;;;;;;;8.02;76.60;102355.50;1756693;81;25845;-63
2022/10/27 05:52:27;;;;;;;18.02;8.13;;;;;;;8.06;76.45;102365.98;1767349;81;27575;-63
2022/10/27 05:54:54;;;;;;;17.87;9.43;;;;;;;8.09;76.40;102367.17;1767195;81;25539;-63
2022/10/27 05:57:21;;;;;;;25.02;9.08;;;;;;;8.10;76.41;102375.61;1767003;81;25678;-63
2022/10/27 05:59:48;;;;;;;17.65;8.95;;;;;;;8.09;76.35;102368.52;1767510;81;26232;-63
2022/10/27 06:02:16;;;;;;;16.80;8.63;;;;;;;8.10;76.33;102375.61;1738949;81;25826;-64
2022/10/27 06:04:43;;;;;;;17.10;8.50;;;;;;;8.12;76.40;102380.39;1759151;79;27483;-62
2022/10/27 06:07:12;;;;;;;19.32;9.30;;;;;;;8.11;76.36;102375.97;1735240;82;26432;-63
2022/10/27 06:09:39;;;;;;;15.85;9.25;;;;;;;8.17;76.67;102376.13;1735551;81;25703;-63
2022/10/27 06:12:06;;;;;;;22.73;10.03;;;;;;;8.20;76.62;102378.66;1735273;82;25735;-62
2022/10/27 06:14:32;;;;;;;21.77;9.00;;;;;;;8.24;76.71;102378.91;1736162;79;25750;-62
2022/10/27 06:16:59;;;;;;;17.57;9.30;;;;;;;8.28;76.86;102384.48;1734946;82;27455;-63
2022/10/27 06:19:26;;;;;;;35.15;10.53;;;;;;;8.34;77.24;102378.41;1734934;81;25739;-62
2022/10/27 06:21:53;;;;;;;23.87;9.70;;;;;;;8.42;77.50;102382.40;1735384;82;25775;-64
2022/10/27 06:24:20;;;;;;;23.42;9.20;;;;;;;8.51;77.69;102380.20;1745440;79;26378;-63
2022/10/27 06:26:47;;;;;;;32.85;11.15;;;;;;;8.61;78.04;102377.41;1786611;80;26185;-62
2022/10/27 06:29:14;;;;;;;20.43;9.65;;;;;;;8.71;78.09;102375.08;1765464;81;27435;-63
2022/10/27 06:31:42;;;;;;;24.25;9.70;;;;;;;8.84;79.00;102372.58;1776138;78;25734;-63
2022/10/27 06:34:09;;;;;;;17.65;8.98;;;;;;;8.92;78.87;102371.67;1797749;79;25658;-62
2022/10/27 06:36:36;;;;;;;21.17;9.90;;;;;;;9.00;79.00;102372.59;1802924;79;25790;-64
2022/10/27 06:39:03;;;;;;;26.93;10.05;;;;;;;9.10;78.73;102375.64;1788767;80;25980;-63
2022/10/27 06:41:30;;;;;;;22.77;10.68;;;;;;;9.23;78.91;102378.00;1755951;81;28211;-63
2022/10/27 06:43:56;;;;;;;21.17;10.70;;;;;;;9.41;79.04;102380.13;1788531;80;25738;-63
2022/10/27 06:46:23;;;;;;;32.30;9.45;;;;;;;9.57;79.02;102370.66;1756065;81;25747;-64
2022/10/27 06:48:51;;;;;;;21.20;9.08;;;;;;;9.69;78.59;102378.47;1788592;79;25779;-63
2022/10/27 06:51:18;;;;;;;16.62;8.85;;;;;;;9.76;78.19;102379.87;1758865;81;25742;-62
2022/10/27 06:53:46;;;;;;;19.12;8.25;;;;;;;9.80;77.94;102376.52;1758825;81;27851;-63
2022/10/27 06:56:13;;;;;;;19.07;9.15;;;;;;;9.89;77.67;102381.80;1761527;81;25723;-63
2022/10/27 06:58:40;;;;;;;36.95;10.40;;;;;;;10.00;77.57;102391.44;1811507;79;25819;-62
2022/10/27 07:01:08;;;;;;;13.93;8.03;;;;;;;10.08;77.07;102385.61;1812043;79;27563;-64
2022/10/27 07:03:36;;;;;;;25.57;9.25;;;;;;;10.15;76.97;102390.98;1811598;79;25727;-63
2022/10/27 07:06:04;;;;;;;12.65;7.87;;;;;;;10.26;76.59;102390.33;1798873;79;27901;-66
2022/10/27 07:08:31;;;;;;;17.35;7.60;;;;;;;10.30;75.84;102384.66;1802539;79;25777;-64
2022/10/27 07:10:59;;;;;;;14.13;8.03;;;;;;;10.34;75.21;102387.56;1789910;79;26807;-62
2022/10/27 07:13:26;;;;;;;14.35;7.87;;;;;;;10.37;75.14;102388.30;1767773;79;26244;-64
2022/10/27 07:15:53;;;;;;;14.05;8.03;;;;;;;10.47;75.21;102390.39;1767910;80;25459;-63
2022/10/27 07:18:20;;;;;;;12.28;7.15;;;;;;;10.56;74.79;102387.58;1766669;80;27490;-63
2022/10/27 07:20:48;;;;;;;15.65;7.87;;;;;;;10.63;74.41;102391.61;1766550;81;25761;-63
2022/10/27 07:23:17;;;;;;;11.63;7.15;;;;;;;10.70;74.45;102388.55;1797419;79;25706;-64
2022/10/27 07:25:49;;;;;;;21.07;6.60;;;;;;;10.76;73.65;102393.54;1791957;78;25790;-64
2022/10/27 07:28:17;;;;;;;11.73;7.30;;;;;;;10.80;72.75;102391.90;1779472;80;25766;-63
2022/10/27 07:30:46;;;;;;;12.68;6.33;;;;;;;10.90;72.93;102394.85;1789898;80;28289;-62
2022/10/27 07:33:14;;;;;;;19.62;6.55;;;;;;;11.03;72.67;102401.66;1793717;80;25840;-64
2022/10/27 07:35:41;;;;;;;12.58;6.35;;;;;;;11.17;72.34;102396.72;1794127;80;25810;-64
2022/10/27 07:38:08;;;;;;;12.78;5.33;;;;;;;11.23;70.97;102403.55;1793885;80;25765;-63
2022/10/27 07:40:37;;;;;;;14.87;5.97;;;;;;;11.30;70.35;102410.75;1770252;80;25775;-63
2022/10/27 07:43:05;;;;;;;11.55;5.55;;;;;;;11.41;70.71;102411.77;1760078;81;28186;-63
2022/10/27 07:45:33;;;;;;;12.35;4.97;;;;;;;11.54;70.01;102410.47;1761259;81;26463;-64
2022/10/27 07:47:59;;;;;;;11.33;5.05;;;;;;;11.69;69.67;102417.16;1788979;80;25437;-64
2022/10/27 07:50:29;;;;;;;16.77;5.97;;;;;;;11.79;68.11;102423.64;1782552;80;25593;-63
2022/10/27 07:52:57;;;;;;;14.38;6.17;;;;;;;11.93;68.44;102428.59;1813986;79;25741;-64
2022/10/27 07:55:26;;;;;;;15.63;6.53;;;;;;;12.12;67.97;102425.52;1783644;78;28283;-63
2022/10/27 07:58:04;;;;;;;13.38;6.30;;;;;;;12.34;68.50;102426.24;1758340;81;25846;-62
2022/10/27 08:00:32;;;;;;;12.98;7.03;;;;;;;12.57;67.94;102426.48;1786090;80;25778;-64
2022/10/27 08:03:04;;;;;;;18.75;6.72;;;;;;;12.72;66.96;102423.17;1755478;80;26161;-63
2022/10/27 08:05:35;;;;;;;10.70;6.33;;;;;;;12.86;67.39;102423.03;1786837;80;25502;-64
2022/10/27 08:08:04;;;;;;;20.52;7.00;;;;;;;13.02;67.15;102424.62;1785297;80;28116;-63
2022/10/27 08:10:35;;;;;;;25.17;8.55;;;;;;;13.23;66.11;102433.87;1785141;80;25865;-64
2022/10/27 08:13:04;;;;;;;17.65;7.60;;;;;;;13.34;65.69;102431.71;1798586;79;26042;-64
2022/10/27 08:15:32;;;;;;;12.10;7.62;;;;;;;13.49;65.59;102435.66;1818976;78;25790;-64
2022/10/27 08:18:02;;;;;;;16.20;7.80;;;;;;;13.65;65.39;102433.52;1822220;78;26199;-63
2022/10/27 08:20:33;;;;;;;19.48;9.38;;;;;;;13.81;64.78;102434.55;1808544;78;28341;-64
2022/10/27 08:23:06;;;;;;;26.50;8.58;;;;;;;14.03;64.76;102426.16;1761426;81;26428;-64
2022/10/27 08:25:34;;;;;;;22.15;8.55;;;;;;;14.35;64.52;102425.48;1777663;78;25525;-64
2022/10/27 08:28:02;;;;;;;19.60;9.15;;;;;;;14.66;63.60;102419.87;1809867;78;25732;-65
2022/10/27 08:30:32;;;;;;;18.82;8.45;;;;;;;14.98;62.80;102420.98;1803312;78;25925;-65
2022/10/27 08:33:01;;;;;;;14.25;8.58;;;;;;;15.16;62.31;102409.98;1785609;78;27483;-65
2022/10/27 08:35:31;;;;;;;25.05;8.15;;;;;;;15.38;62.82;102411.41;1815793;78;25767;-64
2022/10/27 08:38:04;;;;;;;19.62;8.85;;;;;;;15.70;62.10;102411.42;1818753;78;25725;-64
2022/10/27 08:41:11;;;;;;;21.82;8.03;;;;;;;16.00;61.65;102410.34;1809794;78;26240;-64
2022/10/27 08:44:05;;;;;;;18.35;7.87;;;;;;;16.26;59.88;102411.67;1785720;77;25764;-64
2022/10/27 08:46:54;;;;;;;25.50;8.60;;;;;;;16.51;60.09;102414.94;1794270;78;27483;-64
2022/10/27 08:49:45;;;;;;;13.25;6.92;;;;;;;16.81;58.66;102412.34;1790064;77;25709;-65
2022/10/27 08:52:29;;;;;;;24.90;10.75;;;;;;;16.97;59.37;102418.66;1816147;77;25841;-64
2022/10/27 08:55:14;;;;;;;17.07;7.58;;;;;;;17.17;59.54;102416.85;1805972;78;25756;-64
2022/10/27 08:57:47;;;;;;;10.75;7.15;;;;;;;17.34;58.80;102422.97;1785084;78;25765;-64
2022/10/27 09:00:16;;;;;;;13.25;6.47;;;;;;;17.48;57.09;102420.86;1782378;78;27868;-65
2022/10/27 09:03:01;;;;;;;13.53;7.90;;;;;;;17.49;57.26;102422.06;1809139;77;25770;-64
2022/10/27 09:05:58;;;;;;;18.77;7.67;;;;;;;17.49;58.00;102425.27;1765572;78;25747;-64
2022/10/27 09:09:05;;;;;;;13.20;6.33;;;;;;;17.46;57.74;102425.57;1731466;81;25952;-65
2022/10/27 09:11:55;;;;;;;10.65;6.75;;;;;;;17.53;57.86;102415.32;1774453;79;25806;-65
2022/10/27 09:14:45;;;;;;;16.87;6.72;;;;;;;17.58;55.85;102412.69;1785194;79;27475;-65
2022/10/27 09:17:20;;;;;;;10.60;7.15;;;;;;;17.71;54.68;102424.13;1795991;79;25828;-64
2022/10/27 09:20:02;;;;;;;12.28;7.87;;;;;;;18.55;54.94;102410.84;1790192;79;25660;-64
2022/10/27 09:22:36;;;;;;;16.17;7.30;;;;;;;19.63;52.32;102402.92;1799141;79;26264;-66
2022/10/27 09:25:09;;;;;;;15.43;7.03;;;;;;;20.56;52.08;102411.14;1798844;79;25760;-65
2022/10/27 09:27:38;;;;;;;14.60;7.33;;;;;;;21.32;49.61;102406.31;1787241;79;27483;-64
2022/10/27 09:30:08;;;;;;;16.00;4.92;;;;;;;21.61;49.54;102405.86;1773748;79;25800;-64
2022/10/27 09:32:36;;;;;;;14.55;5.33;;;;;;;21.63;49.23;102398.87;1737420;81;25802;-65
2022/10/27 09:35:14;;;;;;;9.93;5.12;;;;;;;22.01;48.72;102405.53;1767125;81;25763;-65
2022/10/27 09:37:41;;;;;;;13.00;5.22;;;;;;;22.44;48.06;102402.59;1772653;79;25738;-65
2022/10/27 09:40:19;;;;;;;11.90;5.40;;;;;;;22.98;46.52;102397.73;1788408;79;27470;-65
2022/10/27 09:42:52;;;;;;;7.28;4.65;;;;;;;23.72;45.75;102391.44;1797190;79;26163;-65
2022/10/27 09:45:21;;;;;;;;;;;;;;;24.42;43.33;102393.53;1801748;79;25682;-66
2022/10/27 09:47:52;;;;;;;11.35;3.45;;;;;;;25.12;42.83;102392.66;1799320;79;26218;-65
2022/10/27 09:50:24;;;;;;;9.43;4.25;;;;;;;25.72;40.81;102396.61;1789648;79;25790;-65
2022/10/27 09:52:51;;;;;;;13.43;4.40;;;;;;;26.16;39.04;102388.28;1813711;78;29702;-66
2022/10/27 09:55:19;;;;;;;11.53;4.28;;;;;;;26.47;37.80;102383.70;1813435;78;25691;-65
2022/10/27 09:57:49;;;;;;;10.18;3.40;;;;;;;26.65;38.15;102383.14;1814046;78;25755;-65
2022/10/27 10:00:25;;;;;;;9.90;3.80;;;;;;;26.96;38.12;102380.95;1783936;79;25739;-65
2022/10/27 10:03:05;;;;;;;10.95;4.17;;;;;;;27.26;36.85;102375.94;1784322;79;25718;-65
2022/10/27 10:05:36;;;;;;;8.30;3.30;;;;;;;27.79;35.89;102372.96;1813544;78;27446;-65
2022/10/27 10:08:26;;;;;;;6.50;2.65;;;;;;;28.11;36.25;102369.84;1813776;78;26027;-66
2022/10/27 10:10:57;;;;;;;6.67;3.00;;;;;;;28.55;34.16;102377.09;1813124;77;25841;-66
2022/10/27 10:13:28;;;;;;;7.40;2.47;;;;;;;28.69;32.85;102377.02;1814171;78;25602;-66
2022/10/27 10:16:09;;;;;;;6.08;2.72;;;;;;;28.67;33.33;102380.58;1813243;79;25741;-66
2022/10/27 10:18:38;;;;;;;12.65;2.65;;;;;;;28.94;33.72;102377.72;1813826;79;27462;-66
2022/10/27 10:21:10;;;;;;;5.72;1.95;;;;;;;29.23;32.29;102368.50;1813841;78;26210;-66
2022/10/27 10:23:52;;;;;;;4.70;2.10;;;;;;;29.66;30.69;102369.16;1813296;78;25717;-66
2022/10/27 10:26:23;;;;;;;4.87;2.40;;;;;;;29.89;30.76;102365.77;1813861;79;25754;-66
2022/10/27 10:28:59;;;;;;;7.17;2.90;;;;;;;30.25;30.54;102366.92;1813749;79;25706;-66
2022/10/27 10:31:28;;;;;;;4.12;2.35;;;;;;;30.62;29.61;102356.37;1809335;77;27820;-66
2022/10/27 10:34:07;;;;;;;7.70;2.10;;;;;;;30.64;27.96;102359.77;1800722;78;25773;-66
2022/10/27 10:36:38;;;;;;;7.75;2.10;;;;;;;30.87;26.76;102358.17;1801043;79;25787;-66
2022/10/27 10:39:25;;;;;;;4.53;1.92;;;;;;;30.94;27.72;102353.92;1800740;79;26379;-66
2022/10/27 10:42:14;;;;;;;3.92;1.70;;;;;;;31.08;27.50;102354.02;1801133;79;25990;-65
2022/10/27 10:44:42;;;;;;;5.17;2.17;;;;;;;31.26;27.46;102349.51;1801024;79;28216;-65
2022/10/27 10:47:30;;;;;;;6.42;2.22;;;;;;;30.94;27.17;102351.14;1800705;78;25784;-66
2022/10/27 10:50:00;;;;;;;4.03;2.50;;;;;;;30.93;27.20;102350.83;1801864;78;25746;-66
2022/10/27 10:52:39;;;;;;;7.03;2.15;;;;;;;30.84;26.59;102343.38;1789376;80;25768;-66
2022/10/27 10:55:17;;;;;;;6.42;2.55;;;;;;;30.31;26.30;102349.02;1789388;80;25928;-65
2022/10/27 10:57:47;;;;;;;5.60;2.70;;;;;;;29.50;27.28;102348.39;1775118;80;27479;-64
2022/10/27 11:00:20;;;;;;;7.40;2.50;;;;;;;28.84;27.96;102346.32;1774907;80;25817;-67
2022/10/27 11:02:58;;;;;;;6.72;1.80;;;;;;;28.59;27.97;102345.67;1755318;80;25765;-65
2022/10/27 11:05:36;;;;;;;4.17;2.20;;;;;;;28.17;29.30;102342.41;1750774;80;25776;-65
2022/10/27 11:08:05;;;;;;;5.22;2.92;;;;;;;27.71;28.70;102346.88;1762590;81;25793;-65
2022/10/27 11:10:41;;;;;;;4.20;2.25;;;;;;;27.39;30.19;102344.71;1763210;81;27899;-65
2022/10/27 11:13:28;;;;;;;4.50;1.90;;;;;;;27.36;30.15;102342.91;1763344;80;25636;-65
2022/10/27 11:16:06;;;;;;;4.03;2.10;;;;;;;27.69;30.10;102343.50;1754540;80;25771;-65
2022/10/27 11:18:51;;;;;;;5.53;3.15;;;;;;;28.16;29.00;102342.92;1735500;81;25777;-66
2022/10/27 11:21:50;;;;;;;4.35;2.30;;;;;;;27.93;29.56;102345.60;1763148;79;26001;-66
2022/10/27 11:24:46;;;;;;;7.80;2.77;;;;;;;27.98;30.00;102352.39;1763427;80;27929;-67
2022/10/27 11:27:19;;;;;;;6.20;3.50;;;;;;;28.15;29.49;102339.84;1774993;78;25823;-65
2022/10/27 11:30:06;;;;;;;5.85;2.98;;;;;;;28.05;29.59;102351.87;1808944;78;25677;-65
2022/10/27 11:32:53;;;;;;;6.60;2.60;;;;;;;27.85;30.30;102340.30;1808997;79;27916;-65
2022/10/27 11:35:44;;;;;;;9.33;3.22;;;;;;;27.64;30.49;102335.85;1809415;77;26244;-64
2022/10/27 11:38:50;;;;;;;6.55;3.25;;;;;;;27.54;30.31;102339.02;1809108;78;27467;-66
2022/10/27 11:41:45;;;;;;;7.17;3.00;;;;;;;27.43;30.68;102334.98;1809135;78;26404;-66
2022/10/27 11:44:36;;;;;;;7.30;3.72;;;;;;;27.25;30.96;102337.48;1809017;77;25771;-65
2022/10/27 11:47:29;;;;;;;7.55;2.62;;;;;;;27.02;30.90;102330.44;1793933;79;25837;-65
2022/10/27 11:50:13;;;;;;;11.95;3.37;;;;;;;26.82;31.07;102332.61;1808803;77;25792;-65